sensor_id;sensor_type;location;lat;lon;timestamp;P1;durP1;ratioP1;P2;durP2;ratioP2
48765;SDS011;65794;51.836;5.002;2023-06-22T00:01:19;5.00;;;3.20;;
48765;SDS011;65794;51.836;5.002;2023-06-22T00:03:46;6.10;;;3.40;;
48765;SDS011;65794;51.836;5.002;2023-06-22T00:06:13;11.25;;;3.40;;
48765;SDS011;65794;51.836;5.002;2023-06-22T00:08:41;9.30;;;4.10;;
48765;SDS011;65794;51.836;5.002;2023-06-22T00:11:07;8.40;;;3.85;;
48765;SDS011;65794;51.836;5.002;2023-06-22T00:13:34;7.82;;;4.20;;
48765;SDS011;65794;51.836;5.002;2023-06-22T00:16:01;8.07;;;4.47;;
48765;SDS011;65794;51.836;5.002;2023-06-22T00:18:28;8.82;;;4.95;;
48765;SDS011;65794;51.836;5.002;2023-06-22T00:20:57;10.40;;;4.55;;
48765;SDS011;65794;51.836;5.002;2023-06-22T00:23:25;7.50;;;4.78;;
48765;SDS011;65794;51.836;5.002;2023-06-22T00:25:52;11.82;;;5.50;;
48765;SDS011;65794;51.836;5.002;2023-06-22T00:28:20;8.75;;;5.30;;
48765;SDS011;65794;51.836;5.002;2023-06-22T00:30:48;9.02;;;5.43;;
48765;SDS011;65794;51.836;5.002;2023-06-22T00:33:15;8.63;;;5.13;;
48765;SDS011;65794;51.836;5.002;2023-06-22T00:35:43;9.68;;;5.45;;
48765;SDS011;65794;51.836;5.002;2023-06-22T00:38:10;9.82;;;6.03;;
48765;SDS011;65794;51.836;5.002;2023-06-22T00:40:37;11.98;;;6.63;;
48765;SDS011;65794;51.836;5.002;2023-06-22T00:43:04;13.52;;;6.47;;
48765;SDS011;65794;51.836;5.002;2023-06-22T00:45:32;10.50;;;6.15;;
48765;SDS011;65794;51.836;5.002;2023-06-22T00:47:59;12.00;;;6.15;;
48765;SDS011;65794;51.836;5.002;2023-06-22T00:50:28;14.75;;;6.80;;
48765;SDS011;65794;51.836;5.002;2023-06-22T00:52:57;11.82;;;6.60;;
48765;SDS011;65794;51.836;5.002;2023-06-22T00:55:25;13.40;;;6.57;;
48765;SDS011;65794;51.836;5.002;2023-06-22T00:57:55;12.18;;;6.85;;
48765;SDS011;65794;51.836;5.002;2023-06-22T01:00:24;11.27;;;6.72;;
48765;SDS011;65794;51.836;5.002;2023-06-22T01:02:53;13.25;;;7.28;;
48765;SDS011;65794;51.836;5.002;2023-06-22T01:05:21;17.25;;;6.80;;
48765;SDS011;65794;51.836;5.002;2023-06-22T01:07:55;11.13;;;6.53;;
48765;SDS011;65794;51.836;5.002;2023-06-22T01:12:54;14.95;;;7.32;;
48765;SDS011;65794;51.836;5.002;2023-06-22T01:15:28;13.10;;;7.03;;
48765;SDS011;65794;51.836;5.002;2023-06-22T01:17:58;12.80;;;7.47;;
48765;SDS011;65794;51.836;5.002;2023-06-22T01:20:26;14.82;;;7.50;;
48765;SDS011;65794;51.836;5.002;2023-06-22T01:22:59;14.15;;;7.35;;
48765;SDS011;65794;51.836;5.002;2023-06-22T01:25:39;15.40;;;8.45;;
48765;SDS011;65794;51.836;5.002;2023-06-22T01:28:29;15.50;;;7.88;;
48765;SDS011;65794;51.836;5.002;2023-06-22T01:30:57;13.95;;;7.20;;
48765;SDS011;65794;51.836;5.002;2023-06-22T01:33:33;13.57;;;7.23;;
48765;SDS011;65794;51.836;5.002;2023-06-22T01:36:01;14.52;;;7.60;;
48765;SDS011;65794;51.836;5.002;2023-06-22T01:38:29;12.73;;;7.50;;
48765;SDS011;65794;51.836;5.002;2023-06-22T01:40:57;14.75;;;7.78;;
48765;SDS011;65794;51.836;5.002;2023-06-22T01:43:27;13.85;;;7.60;;
48765;SDS011;65794;51.836;5.002;2023-06-22T01:45:55;12.60;;;7.38;;
48765;SDS011;65794;51.836;5.002;2023-06-22T01:48:22;29.13;;;7.40;;
48765;SDS011;65794;51.836;5.002;2023-06-22T01:50:50;14.43;;;7.78;;
48765;SDS011;65794;51.836;5.002;2023-06-22T01:53:17;14.98;;;8.27;;
48765;SDS011;65794;51.836;5.002;2023-06-22T01:55:44;14.75;;;8.02;;
48765;SDS011;65794;51.836;5.002;2023-06-22T01:58:12;12.52;;;7.75;;
48765;SDS011;65794;51.836;5.002;2023-06-22T02:00:39;15.23;;;8.07;;
48765;SDS011;65794;51.836;5.002;2023-06-22T02:03:14;13.98;;;8.15;;
48765;SDS011;65794;51.836;5.002;2023-06-22T02:05:54;14.65;;;8.60;;
48765;SDS011;65794;51.836;5.002;2023-06-22T02:08:28;15.82;;;8.10;;
48765;SDS011;65794;51.836;5.002;2023-06-22T02:10:58;17.00;;;8.57;;
48765;SDS011;65794;51.836;5.002;2023-06-22T02:13:26;14.38;;;8.45;;
48765;SDS011;65794;51.836;5.002;2023-06-22T02:15:57;18.23;;;9.15;;
48765;SDS011;65794;51.836;5.002;2023-06-22T02:18:24;16.60;;;10.27;;
48765;SDS011;65794;51.836;5.002;2023-06-22T02:20:52;16.45;;;8.73;;
48765;SDS011;65794;51.836;5.002;2023-06-22T02:23:19;18.48;;;9.02;;
48765;SDS011;65794;51.836;5.002;2023-06-22T02:25:46;17.52;;;9.32;;
48765;SDS011;65794;51.836;5.002;2023-06-22T02:28:13;16.98;;;9.23;;
48765;SDS011;65794;51.836;5.002;2023-06-22T02:30:40;17.85;;;9.25;;
48765;SDS011;65794;51.836;5.002;2023-06-22T02:33:07;19.67;;;9.43;;
48765;SDS011;65794;51.836;5.002;2023-06-22T02:35:34;16.23;;;9.27;;
48765;SDS011;65794;51.836;5.002;2023-06-22T02:38:02;19.00;;;8.57;;
48765;SDS011;65794;51.836;5.002;2023-06-22T02:40:29;17.17;;;8.73;;
48765;SDS011;65794;51.836;5.002;2023-06-22T02:42:59;14.05;;;8.73;;
48765;SDS011;65794;51.836;5.002;2023-06-22T02:45:29;15.75;;;9.05;;
48765;SDS011;65794;51.836;5.002;2023-06-22T02:47:56;15.57;;;9.35;;
48765;SDS011;65794;51.836;5.002;2023-06-22T02:50:24;16.33;;;9.18;;
48765;SDS011;65794;51.836;5.002;2023-06-22T02:52:53;16.83;;;8.73;;
48765;SDS011;65794;51.836;5.002;2023-06-22T02:55:20;15.90;;;8.63;;
48765;SDS011;65794;51.836;5.002;2023-06-22T02:57:53;17.88;;;9.65;;
48765;SDS011;65794;51.836;5.002;2023-06-22T03:00:21;17.52;;;9.20;;
48765;SDS011;65794;51.836;5.002;2023-06-22T03:02:49;16.90;;;9.10;;
48765;SDS011;65794;51.836;5.002;2023-06-22T03:05:17;16.30;;;9.45;;
48765;SDS011;65794;51.836;5.002;2023-06-22T03:07:46;17.60;;;10.07;;
48765;SDS011;65794;51.836;5.002;2023-06-22T03:10:13;16.30;;;9.23;;
48765;SDS011;65794;51.836;5.002;2023-06-22T03:12:41;17.42;;;9.52;;
48765;SDS011;65794;51.836;5.002;2023-06-22T03:15:10;14.93;;;8.98;;
48765;SDS011;65794;51.836;5.002;2023-06-22T03:17:37;18.33;;;9.77;;
48765;SDS011;65794;51.836;5.002;2023-06-22T03:20:07;19.92;;;9.65;;
48765;SDS011;65794;51.836;5.002;2023-06-22T03:22:40;16.15;;;8.98;;
48765;SDS011;65794;51.836;5.002;2023-06-22T03:25:08;21.63;;;9.80;;
48765;SDS011;65794;51.836;5.002;2023-06-22T03:27:43;18.20;;;9.05;;
48765;SDS011;65794;51.836;5.002;2023-06-22T03:30:11;18.60;;;9.88;;
48765;SDS011;65794;51.836;5.002;2023-06-22T03:32:38;24.73;;;9.98;;
48765;SDS011;65794;51.836;5.002;2023-06-22T03:35:06;21.75;;;10.07;;
48765;SDS011;65794;51.836;5.002;2023-06-22T03:37:35;17.80;;;9.73;;
48765;SDS011;65794;51.836;5.002;2023-06-22T03:40:04;17.45;;;9.95;;
48765;SDS011;65794;51.836;5.002;2023-06-22T03:42:35;19.73;;;10.57;;
48765;SDS011;65794;51.836;5.002;2023-06-22T03:45:05;22.80;;;10.52;;
48765;SDS011;65794;51.836;5.002;2023-06-22T03:47:33;19.80;;;10.07;;
48765;SDS011;65794;51.836;5.002;2023-06-22T03:50:00;18.95;;;10.20;;
48765;SDS011;65794;51.836;5.002;2023-06-22T03:52:27;21.38;;;9.93;;
48765;SDS011;65794;51.836;5.002;2023-06-22T03:54:54;16.77;;;10.02;;
48765;SDS011;65794;51.836;5.002;2023-06-22T03:57:21;20.20;;;10.60;;
48765;SDS011;65794;51.836;5.002;2023-06-22T03:59:48;17.13;;;9.95;;
48765;SDS011;65794;51.836;5.002;2023-06-22T04:02:15;20.52;;;10.38;;
48765;SDS011;65794;51.836;5.002;2023-06-22T04:04:42;18.83;;;10.43;;
48765;SDS011;65794;51.836;5.002;2023-06-22T04:07:09;21.23;;;10.60;;
48765;SDS011;65794;51.836;5.002;2023-06-22T04:09:36;16.55;;;9.55;;
48765;SDS011;65794;51.836;5.002;2023-06-22T04:12:03;20.63;;;10.60;;
48765;SDS011;65794;51.836;5.002;2023-06-22T04:14:30;17.27;;;9.57;;
48765;SDS011;65794;51.836;5.002;2023-06-22T04:16:57;17.88;;;9.27;;
48765;SDS011;65794;51.836;5.002;2023-06-22T04:19:24;16.77;;;10.13;;
48765;SDS011;65794;51.836;5.002;2023-06-22T04:21:51;20.20;;;10.77;;
48765;SDS011;65794;51.836;5.002;2023-06-22T04:24:18;16.98;;;9.43;;
48765;SDS011;65794;51.836;5.002;2023-06-22T04:26:45;18.50;;;10.35;;
48765;SDS011;65794;51.836;5.002;2023-06-22T04:29:13;18.88;;;9.73;;
48765;SDS011;65794;51.836;5.002;2023-06-22T04:31:40;16.73;;;9.23;;
48765;SDS011;65794;51.836;5.002;2023-06-22T04:34:07;16.92;;;9.65;;
48765;SDS011;65794;51.836;5.002;2023-06-22T04:36:35;18.35;;;9.00;;
48765;SDS011;65794;51.836;5.002;2023-06-22T04:39:06;22.98;;;10.27;;
48765;SDS011;65794;51.836;5.002;2023-06-22T04:41:33;16.40;;;9.00;;
48765;SDS011;65794;51.836;5.002;2023-06-22T04:44:12;17.05;;;9.45;;
48765;SDS011;65794;51.836;5.002;2023-06-22T04:46:39;16.13;;;8.82;;
48765;SDS011;65794;51.836;5.002;2023-06-22T04:49:06;14.20;;;8.15;;
48765;SDS011;65794;51.836;5.002;2023-06-22T04:51:37;14.48;;;8.75;;
48765;SDS011;65794;51.836;5.002;2023-06-22T04:54:04;21.90;;;9.20;;
48765;SDS011;65794;51.836;5.002;2023-06-22T04:56:32;18.10;;;8.60;;
48765;SDS011;65794;51.836;5.002;2023-06-22T04:59:00;17.02;;;9.35;;
48765;SDS011;65794;51.836;5.002;2023-06-22T05:01:27;13.88;;;8.50;;
48765;SDS011;65794;51.836;5.002;2023-06-22T05:03:54;14.93;;;8.70;;
48765;SDS011;65794;51.836;5.002;2023-06-22T05:06:25;18.00;;;8.75;;
48765;SDS011;65794;51.836;5.002;2023-06-22T05:08:55;17.15;;;8.43;;
48765;SDS011;65794;51.836;5.002;2023-06-22T05:11:26;15.80;;;8.73;;
48765;SDS011;65794;51.836;5.002;2023-06-22T05:13:53;14.68;;;8.75;;
48765;SDS011;65794;51.836;5.002;2023-06-22T05:16:22;14.60;;;8.45;;
48765;SDS011;65794;51.836;5.002;2023-06-22T05:18:55;17.17;;;8.77;;
48765;SDS011;65794;51.836;5.002;2023-06-22T05:21:24;18.42;;;8.68;;
48765;SDS011;65794;51.836;5.002;2023-06-22T05:23:51;16.50;;;8.52;;
48765;SDS011;65794;51.836;5.002;2023-06-22T05:26:19;15.70;;;8.02;;
48765;SDS011;65794;51.836;5.002;2023-06-22T05:28:46;17.45;;;8.00;;
48765;SDS011;65794;51.836;5.002;2023-06-22T05:31:16;13.75;;;8.40;;
48765;SDS011;65794;51.836;5.002;2023-06-22T05:33:43;12.75;;;8.05;;
48765;SDS011;65794;51.836;5.002;2023-06-22T05:36:11;17.75;;;8.43;;
48765;SDS011;65794;51.836;5.002;2023-06-22T05:38:39;14.23;;;7.72;;
48765;SDS011;65794;51.836;5.002;2023-06-22T05:41:06;14.60;;;7.90;;
48765;SDS011;65794;51.836;5.002;2023-06-22T05:43:33;13.73;;;7.40;;
48765;SDS011;65794;51.836;5.002;2023-06-22T05:46:01;13.77;;;7.72;;
48765;SDS011;65794;51.836;5.002;2023-06-22T05:48:28;15.20;;;7.90;;
48765;SDS011;65794;51.836;5.002;2023-06-22T05:50:55;13.93;;;8.00;;
48765;SDS011;65794;51.836;5.002;2023-06-22T05:53:22;11.52;;;7.30;;
48765;SDS011;65794;51.836;5.002;2023-06-22T05:55:49;15.35;;;7.38;;
48765;SDS011;65794;51.836;5.002;2023-06-22T05:58:16;13.20;;;7.97;;
48765;SDS011;65794;51.836;5.002;2023-06-22T06:00:43;14.65;;;8.20;;
48765;SDS011;65794;51.836;5.002;2023-06-22T06:03:10;15.27;;;7.40;;
48765;SDS011;65794;51.836;5.002;2023-06-22T06:05:41;14.70;;;7.97;;
48765;SDS011;65794;51.836;5.002;2023-06-22T06:08:08;14.00;;;8.15;;
48765;SDS011;65794;51.836;5.002;2023-06-22T06:10:35;19.92;;;10.60;;
48765;SDS011;65794;51.836;5.002;2023-06-22T06:13:01;15.45;;;8.13;;
48765;SDS011;65794;51.836;5.002;2023-06-22T06:15:31;13.35;;;7.85;;
48765;SDS011;65794;51.836;5.002;2023-06-22T06:17:58;12.75;;;7.57;;
48765;SDS011;65794;51.836;5.002;2023-06-22T06:20:26;11.68;;;7.65;;
48765;SDS011;65794;51.836;5.002;2023-06-22T06:22:55;12.65;;;7.28;;
48765;SDS011;65794;51.836;5.002;2023-06-22T06:25:22;14.40;;;7.70;;
48765;SDS011;65794;51.836;5.002;2023-06-22T06:27:50;12.27;;;7.43;;
48765;SDS011;65794;51.836;5.002;2023-06-22T06:30:18;16.75;;;7.95;;
48765;SDS011;65794;51.836;5.002;2023-06-22T06:32:45;13.85;;;7.13;;
48765;SDS011;65794;51.836;5.002;2023-06-22T06:35:14;16.40;;;7.82;;
48765;SDS011;65794;51.836;5.002;2023-06-22T06:37:42;15.02;;;8.02;;
48765;SDS011;65794;51.836;5.002;2023-06-22T06:40:10;12.45;;;7.32;;
48765;SDS011;65794;51.836;5.002;2023-06-22T06:42:37;16.30;;;8.00;;
48765;SDS011;65794;51.836;5.002;2023-06-22T06:45:07;16.63;;;9.00;;
48765;SDS011;65794;51.836;5.002;2023-06-22T06:47:34;14.52;;;9.05;;
48765;SDS011;65794;51.836;5.002;2023-06-22T06:50:02;18.00;;;8.80;;
48765;SDS011;65794;51.836;5.002;2023-06-22T06:52:29;18.40;;;10.18;;
48765;SDS011;65794;51.836;5.002;2023-06-22T06:54:56;19.23;;;11.07;;
48765;SDS011;65794;51.836;5.002;2023-06-22T06:57:23;18.73;;;11.20;;
48765;SDS011;65794;51.836;5.002;2023-06-22T06:59:52;19.13;;;11.25;;
48765;SDS011;65794;51.836;5.002;2023-06-22T07:02:20;23.35;;;11.95;;
48765;SDS011;65794;51.836;5.002;2023-06-22T07:04:48;19.20;;;11.57;;
48765;SDS011;65794;51.836;5.002;2023-06-22T07:07:17;20.13;;;12.10;;
48765;SDS011;65794;51.836;5.002;2023-06-22T07:09:44;21.58;;;12.07;;
48765;SDS011;65794;51.836;5.002;2023-06-22T07:12:11;21.65;;;12.63;;
48765;SDS011;65794;51.836;5.002;2023-06-22T07:14:38;21.83;;;11.80;;
48765;SDS011;65794;51.836;5.002;2023-06-22T07:17:05;21.67;;;11.55;;
48765;SDS011;65794;51.836;5.002;2023-06-22T07:19:32;21.55;;;12.75;;
48765;SDS011;65794;51.836;5.002;2023-06-22T07:22:00;19.00;;;11.93;;
48765;SDS011;65794;51.836;5.002;2023-06-22T07:24:27;23.80;;;13.20;;
48765;SDS011;65794;51.836;5.002;2023-06-22T07:26:54;19.50;;;12.32;;
48765;SDS011;65794;51.836;5.002;2023-06-22T07:29:21;19.27;;;12.30;;
48765;SDS011;65794;51.836;5.002;2023-06-22T07:31:49;21.50;;;12.30;;
48765;SDS011;65794;51.836;5.002;2023-06-22T07:34:18;19.25;;;11.80;;
48765;SDS011;65794;51.836;5.002;2023-06-22T07:36:45;20.80;;;11.52;;
48765;SDS011;65794;51.836;5.002;2023-06-22T07:39:12;19.45;;;11.20;;
48765;SDS011;65794;51.836;5.002;2023-06-22T07:41:39;17.30;;;11.13;;
48765;SDS011;65794;51.836;5.002;2023-06-22T07:44:09;24.45;;;12.50;;
48765;SDS011;65794;51.836;5.002;2023-06-22T07:46:36;20.48;;;10.98;;
48765;SDS011;65794;51.836;5.002;2023-06-22T07:49:03;19.33;;;11.18;;
48765;SDS011;65794;51.836;5.002;2023-06-22T07:51:31;21.63;;;11.80;;
48765;SDS011;65794;51.836;5.002;2023-06-22T07:53:58;18.83;;;11.95;;
48765;SDS011;65794;51.836;5.002;2023-06-22T07:56:25;22.98;;;11.70;;
48765;SDS011;65794;51.836;5.002;2023-06-22T07:58:52;19.52;;;12.50;;
48765;SDS011;65794;51.836;5.002;2023-06-22T08:01:20;25.33;;;12.38;;
48765;SDS011;65794;51.836;5.002;2023-06-22T08:03:48;21.45;;;12.23;;
48765;SDS011;65794;51.836;5.002;2023-06-22T08:06:15;21.90;;;12.73;;
48765;SDS011;65794;51.836;5.002;2023-06-22T08:08:42;18.10;;;12.73;;
48765;SDS011;65794;51.836;5.002;2023-06-22T08:11:09;20.08;;;11.88;;
48765;SDS011;65794;51.836;5.002;2023-06-22T08:13:37;18.88;;;10.52;;
48765;SDS011;65794;51.836;5.002;2023-06-22T08:16:04;15.95;;;10.48;;
48765;SDS011;65794;51.836;5.002;2023-06-22T08:18:31;15.45;;;10.32;;
48765;SDS011;65794;51.836;5.002;2023-06-22T08:20:58;20.73;;;9.52;;
48765;SDS011;65794;51.836;5.002;2023-06-22T08:23:25;13.55;;;8.23;;
48765;SDS011;65794;51.836;5.002;2023-06-22T08:25:52;16.27;;;9.23;;
48765;SDS011;65794;51.836;5.002;2023-06-22T08:28:19;16.73;;;8.90;;
48765;SDS011;65794;51.836;5.002;2023-06-22T08:30:46;17.30;;;9.43;;
48765;SDS011;65794;51.836;5.002;2023-06-22T08:33:13;18.98;;;10.05;;
48765;SDS011;65794;51.836;5.002;2023-06-22T08:35:48;18.25;;;10.35;;
48765;SDS011;65794;51.836;5.002;2023-06-22T08:38:17;19.50;;;10.10;;
48765;SDS011;65794;51.836;5.002;2023-06-22T08:40:45;15.80;;;9.23;;
48765;SDS011;65794;51.836;5.002;2023-06-22T08:43:12;16.80;;;9.60;;
48765;SDS011;65794;51.836;5.002;2023-06-22T08:45:39;14.15;;;8.77;;
48765;SDS011;65794;51.836;5.002;2023-06-22T08:48:07;14.73;;;9.73;;
48765;SDS011;65794;51.836;5.002;2023-06-22T08:50:34;14.98;;;9.32;;
48765;SDS011;65794;51.836;5.002;2023-06-22T08:53:01;15.88;;;9.55;;
48765;SDS011;65794;51.836;5.002;2023-06-22T08:55:28;16.25;;;9.45;;
48765;SDS011;65794;51.836;5.002;2023-06-22T08:57:56;19.45;;;10.30;;
48765;SDS011;65794;51.836;5.002;2023-06-22T09:00:23;15.73;;;10.18;;
48765;SDS011;65794;51.836;5.002;2023-06-22T09:02:50;19.45;;;9.52;;
48765;SDS011;65794;51.836;5.002;2023-06-22T09:05:17;17.60;;;9.77;;
48765;SDS011;65794;51.836;5.002;2023-06-22T09:07:44;15.48;;;8.77;;
48765;SDS011;65794;51.836;5.002;2023-06-22T09:10:11;14.38;;;9.60;;
48765;SDS011;65794;51.836;5.002;2023-06-22T09:12:38;19.42;;;10.10;;
48765;SDS011;65794;51.836;5.002;2023-06-22T09:15:06;19.27;;;9.85;;
48765;SDS011;65794;51.836;5.002;2023-06-22T09:17:38;19.90;;;11.15;;
48765;SDS011;65794;51.836;5.002;2023-06-22T09:20:05;18.40;;;9.82;;
48765;SDS011;65794;51.836;5.002;2023-06-22T09:22:33;19.20;;;9.80;;
48765;SDS011;65794;51.836;5.002;2023-06-22T09:25:00;17.73;;;9.27;;
48765;SDS011;65794;51.836;5.002;2023-06-22T09:27:27;14.40;;;8.50;;
48765;SDS011;65794;51.836;5.002;2023-06-22T09:29:54;13.07;;;7.95;;
48765;SDS011;65794;51.836;5.002;2023-06-22T09:32:21;12.00;;;8.05;;
48765;SDS011;65794;51.836;5.002;2023-06-22T09:34:48;12.88;;;8.38;;
48765;SDS011;65794;51.836;5.002;2023-06-22T09:37:15;17.30;;;8.90;;
48765;SDS011;65794;51.836;5.002;2023-06-22T09:39:42;13.07;;;8.20;;
48765;SDS011;65794;51.836;5.002;2023-06-22T09:42:09;23.75;;;8.43;;
48765;SDS011;65794;51.836;5.002;2023-06-22T09:44:36;15.65;;;8.68;;
48765;SDS011;65794;51.836;5.002;2023-06-22T09:47:03;16.63;;;9.65;;
48765;SDS011;65794;51.836;5.002;2023-06-22T09:49:30;19.83;;;9.75;;
48765;SDS011;65794;51.836;5.002;2023-06-22T09:52:14;15.02;;;8.82;;
48765;SDS011;65794;51.836;5.002;2023-06-22T09:54:41;15.02;;;9.18;;
48765;SDS011;65794;51.836;5.002;2023-06-22T09:57:08;14.57;;;9.45;;
48765;SDS011;65794;51.836;5.002;2023-06-22T09:59:35;18.33;;;10.40;;
48765;SDS011;65794;51.836;5.002;2023-06-22T10:02:02;19.20;;;10.45;;
48765;SDS011;65794;51.836;5.002;2023-06-22T10:04:30;20.35;;;10.25;;
48765;SDS011;65794;51.836;5.002;2023-06-22T10:06:57;19.48;;;11.05;;
48765;SDS011;65794;51.836;5.002;2023-06-22T10:09:24;18.80;;;11.20;;
48765;SDS011;65794;51.836;5.002;2023-06-22T10:11:51;18.10;;;10.82;;
48765;SDS011;65794;51.836;5.002;2023-06-22T10:14:18;19.55;;;11.18;;
48765;SDS011;65794;51.836;5.002;2023-06-22T10:16:45;20.08;;;10.80;;
48765;SDS011;65794;51.836;5.002;2023-06-22T10:19:12;18.83;;;10.73;;
48765;SDS011;65794;51.836;5.002;2023-06-22T10:21:39;20.17;;;11.95;;
48765;SDS011;65794;51.836;5.002;2023-06-22T10:24:06;28.60;;;11.38;;
48765;SDS011;65794;51.836;5.002;2023-06-22T10:26:33;17.98;;;12.05;;
48765;SDS011;65794;51.836;5.002;2023-06-22T10:29:00;23.40;;;12.63;;
48765;SDS011;65794;51.836;5.002;2023-06-22T10:31:43;21.02;;;12.05;;
48765;SDS011;65794;51.836;5.002;2023-06-22T10:34:10;20.75;;;11.50;;
48765;SDS011;65794;51.836;5.002;2023-06-22T10:36:37;21.20;;;12.50;;
48765;SDS011;65794;51.836;5.002;2023-06-22T10:39:04;17.80;;;11.10;;
48765;SDS011;65794;51.836;5.002;2023-06-22T10:41:31;18.58;;;11.32;;
48765;SDS011;65794;51.836;5.002;2023-06-22T10:43:58;25.38;;;10.27;;
48765;SDS011;65794;51.836;5.002;2023-06-22T10:46:25;16.73;;;10.57;;
48765;SDS011;65794;51.836;5.002;2023-06-22T10:48:52;16.45;;;10.20;;
48765;SDS011;65794;51.836;5.002;2023-06-22T10:51:22;16.27;;;10.02;;
48765;SDS011;65794;51.836;5.002;2023-06-22T10:53:48;15.40;;;9.98;;
48765;SDS011;65794;51.836;5.002;2023-06-22T10:56:16;16.88;;;9.18;;
48765;SDS011;65794;51.836;5.002;2023-06-22T10:58:43;16.17;;;9.55;;
48765;SDS011;65794;51.836;5.002;2023-06-22T11:01:09;14.70;;;9.73;;
48765;SDS011;65794;51.836;5.002;2023-06-22T11:03:57;18.80;;;9.98;;
48765;SDS011;65794;51.836;5.002;2023-06-22T11:06:24;15.98;;;9.30;;
48765;SDS011;65794;51.836;5.002;2023-06-22T11:08:51;16.58;;;9.63;;
48765;SDS011;65794;51.836;5.002;2023-06-22T11:11:30;14.00;;;8.80;;
48765;SDS011;65794;51.836;5.002;2023-06-22T11:13:57;14.85;;;9.07;;
48765;SDS011;65794;51.836;5.002;2023-06-22T11:16:24;16.42;;;9.13;;
48765;SDS011;65794;51.836;5.002;2023-06-22T11:18:51;15.98;;;8.98;;
48765;SDS011;65794;51.836;5.002;2023-06-22T11:21:18;19.92;;;9.52;;
48765;SDS011;65794;51.836;5.002;2023-06-22T11:23:45;17.50;;;10.40;;
48765;SDS011;65794;51.836;5.002;2023-06-22T11:26:12;15.07;;;9.68;;
48765;SDS011;65794;51.836;5.002;2023-06-22T11:28:39;14.20;;;9.60;;
48765;SDS011;65794;51.836;5.002;2023-06-22T11:31:06;16.48;;;10.55;;
48765;SDS011;65794;51.836;5.002;2023-06-22T11:33:51;15.75;;;9.63;;
48765;SDS011;65794;51.836;5.002;2023-06-22T11:36:18;14.20;;;9.13;;
48765;SDS011;65794;51.836;5.002;2023-06-22T11:38:45;15.30;;;9.45;;
48765;SDS011;65794;51.836;5.002;2023-06-22T11:41:12;15.13;;;9.50;;
48765;SDS011;65794;51.836;5.002;2023-06-22T11:43:39;14.70;;;8.52;;
48765;SDS011;65794;51.836;5.002;2023-06-22T11:46:06;17.48;;;8.80;;
48765;SDS011;65794;51.836;5.002;2023-06-22T11:48:33;15.27;;;8.95;;
48765;SDS011;65794;51.836;5.002;2023-06-22T11:51:00;13.15;;;8.48;;
48765;SDS011;65794;51.836;5.002;2023-06-22T11:53:29;11.45;;;8.02;;
48765;SDS011;65794;51.836;5.002;2023-06-22T11:55:57;13.57;;;8.63;;
48765;SDS011;65794;51.836;5.002;2023-06-22T11:58:24;15.00;;;9.23;;
48765;SDS011;65794;51.836;5.002;2023-06-22T12:00:51;16.08;;;8.48;;
48765;SDS011;65794;51.836;5.002;2023-06-22T12:03:20;10.10;;;7.72;;
48765;SDS011;65794;51.836;5.002;2023-06-22T12:05:49;11.45;;;7.40;;
48765;SDS011;65794;51.836;5.002;2023-06-22T12:08:18;11.85;;;7.32;;
48765;SDS011;65794;51.836;5.002;2023-06-22T12:10:45;14.23;;;7.47;;
48765;SDS011;65794;51.836;5.002;2023-06-22T12:13:12;13.23;;;7.38;;
48765;SDS011;65794;51.836;5.002;2023-06-22T12:15:39;12.02;;;7.15;;
48765;SDS011;65794;51.836;5.002;2023-06-22T12:18:06;12.73;;;6.72;;
48765;SDS011;65794;51.836;5.002;2023-06-22T12:20:33;9.52;;;5.97;;
48765;SDS011;65794;51.836;5.002;2023-06-22T12:23:01;17.00;;;7.07;;
48765;SDS011;65794;51.836;5.002;2023-06-22T12:25:28;10.43;;;6.55;;
48765;SDS011;65794;51.836;5.002;2023-06-22T12:27:55;11.00;;;6.65;;
48765;SDS011;65794;51.836;5.002;2023-06-22T12:30:22;12.35;;;7.75;;
48765;SDS011;65794;51.836;5.002;2023-06-22T12:32:49;13.55;;;7.45;;
48765;SDS011;65794;51.836;5.002;2023-06-22T12:35:20;13.13;;;7.25;;
48765;SDS011;65794;51.836;5.002;2023-06-22T12:37:47;16.10;;;8.38;;
48765;SDS011;65794;51.836;5.002;2023-06-22T12:40:15;12.65;;;7.40;;
48765;SDS011;65794;51.836;5.002;2023-06-22T12:42:44;13.35;;;8.32;;
48765;SDS011;65794;51.836;5.002;2023-06-22T12:45:11;16.38;;;8.95;;
48765;SDS011;65794;51.836;5.002;2023-06-22T12:47:38;14.15;;;9.15;;
48765;SDS011;65794;51.836;5.002;2023-06-22T12:50:05;18.40;;;9.85;;
48765;SDS011;65794;51.836;5.002;2023-06-22T12:52:32;17.45;;;9.40;;
48765;SDS011;65794;51.836;5.002;2023-06-22T12:54:59;14.75;;;9.82;;
48765;SDS011;65794;51.836;5.002;2023-06-22T12:57:26;16.05;;;9.77;;
48765;SDS011;65794;51.836;5.002;2023-06-22T12:59:53;17.83;;;10.20;;
48765;SDS011;65794;51.836;5.002;2023-06-22T13:02:21;18.00;;;10.55;;
48765;SDS011;65794;51.836;5.002;2023-06-22T13:04:48;18.35;;;10.45;;
48765;SDS011;65794;51.836;5.002;2023-06-22T13:07:15;17.48;;;10.88;;
48765;SDS011;65794;51.836;5.002;2023-06-22T13:09:49;21.80;;;11.93;;
48765;SDS011;65794;51.836;5.002;2023-06-22T13:12:21;19.55;;;11.35;;
48765;SDS011;65794;51.836;5.002;2023-06-22T13:14:49;17.10;;;10.65;;
48765;SDS011;65794;51.836;5.002;2023-06-22T13:17:16;23.30;;;12.93;;
48765;SDS011;65794;51.836;5.002;2023-06-22T13:19:43;18.85;;;12.73;;
48765;SDS011;65794;51.836;5.002;2023-06-22T13:22:29;20.95;;;12.80;;
48765;SDS011;65794;51.836;5.002;2023-06-22T13:25:01;19.40;;;12.88;;
48765;SDS011;65794;51.836;5.002;2023-06-22T13:27:30;26.63;;;13.70;;
48765;SDS011;65794;51.836;5.002;2023-06-22T13:29:57;25.02;;;13.20;;
48765;SDS011;65794;51.836;5.002;2023-06-22T13:32:27;22.33;;;14.00;;
48765;SDS011;65794;51.836;5.002;2023-06-22T13:34:54;22.65;;;14.43;;
48765;SDS011;65794;51.836;5.002;2023-06-22T13:37:21;25.65;;;14.93;;
48765;SDS011;65794;51.836;5.002;2023-06-22T13:39:48;23.40;;;14.60;;
48765;SDS011;65794;51.836;5.002;2023-06-22T13:42:15;20.75;;;13.85;;
48765;SDS011;65794;51.836;5.002;2023-06-22T13:44:42;22.80;;;13.85;;
48765;SDS011;65794;51.836;5.002;2023-06-22T13:47:09;21.88;;;14.55;;
48765;SDS011;65794;51.836;5.002;2023-06-22T13:49:36;25.00;;;14.15;;
48765;SDS011;65794;51.836;5.002;2023-06-22T13:52:03;25.08;;;14.52;;
48765;SDS011;65794;51.836;5.002;2023-06-22T13:54:31;26.27;;;15.20;;
48765;SDS011;65794;51.836;5.002;2023-06-22T13:57:01;28.83;;;14.65;;
48765;SDS011;65794;51.836;5.002;2023-06-22T13:59:29;23.92;;;13.95;;
48765;SDS011;65794;51.836;5.002;2023-06-22T14:01:56;21.60;;;13.75;;
48765;SDS011;65794;51.836;5.002;2023-06-22T14:04:23;23.67;;;14.00;;
48765;SDS011;65794;51.836;5.002;2023-06-22T14:06:50;22.10;;;14.07;;
48765;SDS011;65794;51.836;5.002;2023-06-22T14:09:19;22.33;;;13.52;;
48765;SDS011;65794;51.836;5.002;2023-06-22T14:11:47;19.92;;;13.23;;
48765;SDS011;65794;51.836;5.002;2023-06-22T14:14:13;23.13;;;14.65;;
48765;SDS011;65794;51.836;5.002;2023-06-22T14:16:40;22.92;;;13.95;;
48765;SDS011;65794;51.836;5.002;2023-06-22T14:19:08;20.90;;;14.05;;
48765;SDS011;65794;51.836;5.002;2023-06-22T14:21:35;24.77;;;15.35;;
48765;SDS011;65794;51.836;5.002;2023-06-22T14:24:02;24.45;;;15.43;;
48765;SDS011;65794;51.836;5.002;2023-06-22T14:26:29;26.75;;;15.48;;
48765;SDS011;65794;51.836;5.002;2023-06-22T14:29:00;24.13;;;15.88;;
48765;SDS011;65794;51.836;5.002;2023-06-22T14:31:27;28.25;;;17.23;;
48765;SDS011;65794;51.836;5.002;2023-06-22T14:33:54;29.77;;;16.33;;
48765;SDS011;65794;51.836;5.002;2023-06-22T14:36:24;24.77;;;14.63;;
48765;SDS011;65794;51.836;5.002;2023-06-22T14:38:51;24.35;;;15.90;;